Nikolaevsk, Alaska
Current Conditions -  °F | °C
As of 6:53 AM on Friday 28 Nov 2014 (Local Time) from PAHO Reporting Station
Overcast Overcast  
Wind Chill: 29°   Ceiling: 4400
Heat Index: 33°   Visibility: 10mi
Dew Point: 27°   Wind: 5mph
Humidity: 78%   Direction: 30°NNE
Pressure: 30.14"   Gusts: NA
Location:  59.8183°N, 151.638°W
Report Text: PAHO 281553Z AUTO 03004KT 10SM OVC044 01/M03 A3014 RMK AO2 SLP207 T00061028 TSNO
Loading
Personal Weather Stations






























Interactive Weather Map New forecast layout! Learn more

10-Day Weather Forecast

Advertisements
Track Severe Weather on mobile